createdAt,value
2023-01-19T00:01:15.968Z,18.98
2023-01-19T00:03:26.815Z,18.50
2023-01-19T00:05:31.165Z,19.05
2023-01-19T00:07:33.439Z,19.08
2023-01-19T00:09:41.247Z,18.25
2023-01-19T00:11:50.405Z,17.98
2023-01-19T00:13:53.856Z,18.63
2023-01-19T00:15:55.838Z,18.63
2023-01-19T00:17:57.713Z,18.50
2023-01-19T00:20:00.733Z,18.30
2023-01-19T00:22:02.723Z,18.63
2023-01-19T00:24:04.996Z,19.40
2023-01-19T00:26:13.791Z,18.90
2023-01-19T00:28:18.212Z,18.00
2023-01-19T00:30:22.936Z,17.63
2023-01-19T00:32:31.013Z,18.65
2023-01-19T00:34:37.148Z,17.27
2023-01-19T00:36:40.025Z,19.15
2023-01-19T00:38:50.087Z,18.67
2023-01-19T00:40:52.130Z,18.92
2023-01-19T00:42:54.750Z,18.27
2023-01-19T00:45:07.366Z,18.85
2023-01-19T00:47:12.530Z,18.17
2023-01-19T00:49:20.584Z,18.13
2023-01-19T00:51:22.560Z,17.10
2023-01-19T00:53:32.733Z,17.73
2023-01-19T00:55:34.660Z,18.30
2023-01-19T00:57:38.992Z,17.48
2023-01-19T00:59:41.980Z,16.90
2023-01-19T01:01:45.166Z,18.55
2023-01-19T01:03:48.630Z,18.98
2023-01-19T01:05:50.581Z,18.15
2023-01-19T01:07:52.630Z,17.63
2023-01-19T01:09:54.713Z,18.38
2023-01-19T01:12:00.664Z,18.95
2023-01-19T01:14:02.598Z,18.10
2023-01-19T01:16:06.230Z,19.17
2023-01-19T01:18:10.358Z,18.73
2023-01-19T01:20:23.378Z,18.05
2023-01-19T01:22:25.488Z,17.27
2023-01-19T01:24:32.907Z,16.88
2023-01-19T01:26:36.821Z,18.60
2023-01-19T01:28:39.798Z,17.17
2023-01-19T01:30:44.260Z,17.73
2023-01-19T01:32:52.864Z,19.40
2023-01-19T01:34:54.819Z,18.13
2023-01-19T01:36:56.750Z,19.08
2023-01-19T01:38:58.934Z,18.52
2023-01-19T01:41:00.921Z,19.08
2023-01-19T01:43:03.656Z,18.38
2023-01-19T01:45:35.859Z,18.30
2023-01-19T01:47:47.073Z,17.75
2023-01-19T01:49:50.815Z,18.33
2023-01-19T01:51:54.463Z,19.33
2023-01-19T01:54:04.257Z,19.40
2023-01-19T01:56:12.332Z,18.33
2023-01-19T01:58:16.752Z,17.55
2023-01-19T02:00:19.899Z,18.85
2023-01-19T02:02:49.445Z,18.23
2023-01-19T02:05:15.687Z,18.35
2023-01-19T02:08:02.338Z,18.58
2023-01-19T02:10:23.176Z,19.13
2023-01-19T02:12:45.140Z,19.00
2023-01-19T02:16:56.764Z,19.95
2023-01-19T02:19:12.989Z,18.50
2023-01-19T02:21:23.196Z,18.35
2023-01-19T02:23:53.544Z,19.90
2023-01-19T02:25:56.549Z,22.48
2023-01-19T02:28:01.692Z,24.17
2023-01-19T02:30:05.597Z,25.17
2023-01-19T02:32:08.982Z,26.98
2023-01-19T02:34:15.675Z,27.05
2023-01-19T02:36:35.982Z,26.35
2023-01-19T02:38:47.638Z,23.02
2023-01-19T02:40:59.444Z,25.17
2023-01-19T02:43:04.234Z,25.88
2023-01-19T02:45:17.803Z,25.40
2023-01-19T02:47:20.886Z,26.40
2023-01-19T02:49:23.518Z,24.80
2023-01-19T02:51:25.612Z,25.05
2023-01-19T02:53:56.420Z,23.77
2023-01-19T02:56:19.712Z,25.88
2023-01-19T02:58:45.304Z,24.08
2023-01-19T03:01:32.067Z,22.98
2023-01-19T03:04:07.719Z,22.67
2023-01-19T03:06:37.994Z,22.30
2023-01-19T03:08:48.799Z,22.42
2023-01-19T03:11:01.534Z,31.25
2023-01-19T03:13:19.704Z,35.55
2023-01-19T03:15:33.039Z,34.97
2023-01-19T03:17:38.486Z,33.53
2023-01-19T03:19:43.115Z,28.55
2023-01-19T03:21:49.778Z,27.00
2023-01-19T03:24:06.457Z,24.17
2023-01-19T03:26:13.305Z,23.95
2023-01-19T03:28:20.359Z,23.90
2023-01-19T03:30:30.051Z,23.00
2023-01-19T03:32:42.657Z,22.88
2023-01-19T03:34:48.269Z,23.55
2023-01-19T03:37:02.165Z,26.45
2023-01-19T03:39:06.011Z,23.40
2023-01-19T03:41:17.028Z,23.58
2023-01-19T03:43:20.909Z,23.63
2023-01-19T03:45:26.986Z,22.70
2023-01-19T03:47:35.555Z,21.45
2023-01-19T03:49:39.539Z,21.67
2023-01-19T03:51:43.554Z,23.48
2023-01-19T03:53:46.528Z,23.25
2023-01-19T03:55:51.655Z,23.52
2023-01-19T03:57:53.768Z,24.73
2023-01-19T03:59:57.021Z,25.00
2023-01-19T04:01:58.974Z,24.92
2023-01-19T04:04:01.245Z,22.45
2023-01-19T04:06:10.241Z,22.75
2023-01-19T04:08:14.190Z,21.30
2023-01-19T04:10:18.127Z,23.77
2023-01-19T04:12:23.805Z,23.88
2023-01-19T04:14:25.741Z,25.80
2023-01-19T04:16:29.715Z,24.05
2023-01-19T04:18:34.761Z,24.48
2023-01-19T04:20:38.771Z,21.92
2023-01-19T04:22:42.760Z,22.83
2023-01-19T04:24:46.843Z,22.50
2023-01-19T04:26:52.148Z,22.45
2023-01-19T04:28:54.036Z,24.27
2023-01-19T04:30:57.652Z,23.30
2023-01-19T04:33:00.425Z,23.95
2023-01-19T04:35:02.712Z,22.63
2023-01-19T04:37:04.983Z,23.92
2023-01-19T04:39:09.105Z,23.52
2023-01-19T04:41:11.072Z,24.40
2023-01-19T04:43:14.499Z,26.98
2023-01-19T04:45:17.240Z,26.27
2023-01-19T04:47:19.260Z,30.55
2023-01-19T04:49:22.228Z,33.03
2023-01-19T04:51:24.186Z,35.13
2023-01-19T04:53:27.337Z,32.25
2023-01-19T04:55:29.369Z,28.77
2023-01-19T04:57:31.839Z,31.13
2023-01-19T04:59:33.888Z,32.90
2023-01-19T05:01:35.904Z,34.45
2023-01-19T05:03:38.823Z,29.33
2023-01-19T05:05:41.735Z,28.25
2023-01-19T05:07:43.824Z,25.63
2023-01-19T05:09:46.869Z,22.60
2023-01-19T05:11:49.805Z,22.33
2023-01-19T05:13:51.963Z,19.05
2023-01-19T05:15:53.937Z,20.63
2023-01-19T05:17:58.246Z,20.75
2023-01-19T05:20:01.261Z,17.30
2023-01-19T05:22:04.933Z,19.42
2023-01-19T05:24:07.350Z,20.52
2023-01-19T05:26:10.297Z,19.35
2023-01-19T05:28:13.460Z,18.15
2023-01-19T05:30:15.649Z,18.73
2023-01-19T05:32:17.681Z,17.23
2023-01-19T05:34:21.623Z,16.85
2023-01-19T05:36:23.568Z,15.18
2023-01-19T05:38:34.543Z,15.40
2023-01-19T05:40:37.088Z,15.98
2023-01-19T05:42:39.482Z,15.65
2023-01-19T05:44:42.399Z,15.55
2023-01-19T05:46:45.458Z,15.98
2023-01-19T05:48:47.427Z,14.13
2023-01-19T05:50:51.704Z,15.32
2023-01-19T05:52:53.652Z,16.40
2023-01-19T05:54:55.559Z,15.15
2023-01-19T05:56:57.937Z,16.75
2023-01-19T05:59:00.559Z,15.52
2023-01-19T06:01:05.872Z,14.52
2023-01-19T06:03:15.270Z,16.10
2023-01-19T06:05:17.814Z,16.67
2023-01-19T06:07:19.860Z,17.42
2023-01-19T06:09:21.829Z,17.70
2023-01-19T06:11:26.394Z,16.90
2023-01-19T06:13:28.290Z,17.15
2023-01-19T06:15:30.295Z,16.30
2023-01-19T06:17:33.596Z,15.40
2023-01-19T06:19:36.614Z,14.90
2023-01-19T06:21:39.601Z,16.55
2023-01-19T06:23:41.578Z,15.07
2023-01-19T06:25:43.489Z,14.18
2023-01-19T06:27:46.323Z,15.02
2023-01-19T06:29:49.392Z,15.57
2023-01-19T06:32:01.544Z,15.48
2023-01-19T06:34:04.207Z,15.85
2023-01-19T06:36:06.424Z,15.43
2023-01-19T06:38:10.663Z,14.95
2023-01-19T06:40:14.730Z,15.45
2023-01-19T06:42:17.054Z,15.52
2023-01-19T06:44:30.298Z,14.55
2023-01-19T06:46:36.146Z,16.70
2023-01-19T06:48:48.826Z,16.15
2023-01-19T06:50:53.917Z,15.77
2023-01-19T06:52:56.908Z,16.77
2023-01-19T06:55:05.132Z,17.25
2023-01-19T06:57:12.173Z,17.52
2023-01-19T06:59:22.128Z,16.38
2023-01-19T07:01:33.014Z,16.80
2023-01-19T07:03:47.163Z,19.00
2023-01-19T07:06:06.969Z,17.08
2023-01-19T07:08:17.208Z,16.63
2023-01-19T07:10:27.120Z,16.30
2023-01-19T07:12:49.354Z,16.90
2023-01-19T07:15:00.886Z,16.92
2023-01-19T07:17:03.248Z,16.73
2023-01-19T07:19:06.306Z,17.00
2023-01-19T07:21:10.310Z,17.05
2023-01-19T07:23:21.301Z,15.70
2023-01-19T07:25:31.022Z,15.95
2023-01-19T07:27:37.000Z,15.88
2023-01-19T07:29:45.641Z,16.05
2023-01-19T07:31:54.961Z,15.63
2023-01-19T07:36:30.623Z,15.35
2023-01-19T07:38:37.859Z,16.17
2023-01-19T07:41:16.154Z,16.80
2023-01-19T07:43:19.745Z,15.93
2023-01-19T07:45:26.118Z,16.92
2023-01-19T07:47:30.851Z,16.27
2023-01-19T07:49:33.923Z,16.70
2023-01-19T07:51:36.470Z,17.00
2023-01-19T07:53:42.117Z,18.63
2023-01-19T07:55:44.399Z,18.52
2023-01-19T07:57:52.017Z,18.52
2023-01-19T08:00:04.340Z,16.67
2023-01-19T08:02:10.326Z,16.35
2023-01-19T08:04:12.537Z,16.50
2023-01-19T08:06:24.625Z,16.25
2023-01-19T08:08:26.663Z,16.70
2023-01-19T08:10:30.666Z,15.88
2023-01-19T08:12:39.390Z,16.30
2023-01-19T08:14:41.647Z,16.23
2023-01-19T08:16:50.000Z,15.75
2023-01-19T08:18:52.146Z,14.60
2023-01-19T08:20:54.112Z,15.05
2023-01-19T08:23:03.384Z,14.73
2023-01-19T08:25:19.757Z,14.27
2023-01-19T08:27:37.961Z,15.45
2023-01-19T08:29:41.892Z,16.52
2023-01-19T08:31:46.052Z,15.85
2023-01-19T08:33:50.341Z,16.23
2023-01-19T08:35:54.260Z,15.30
2023-01-19T08:37:56.203Z,16.13
2023-01-19T08:40:00.145Z,14.55
2023-01-19T08:42:04.356Z,16.00
2023-01-19T08:44:14.883Z,13.90
2023-01-19T08:46:17.798Z,13.93
2023-01-19T08:48:22.956Z,16.00
2023-01-19T08:50:28.197Z,15.73
2023-01-19T08:52:30.825Z,13.82
2023-01-19T08:54:32.879Z,13.93
2023-01-19T08:56:38.121Z,13.70
2023-01-19T08:58:43.272Z,13.18
2023-01-19T09:00:46.264Z,13.43
2023-01-19T09:02:48.682Z,13.13
2023-01-19T09:04:50.744Z,12.90
2023-01-19T09:07:00.675Z,13.38
2023-01-19T09:09:04.066Z,14.20
2023-01-19T09:11:13.392Z,13.20
2023-01-19T09:13:20.716Z,11.30
2023-01-19T09:15:23.747Z,13.57
2023-01-19T09:17:33.996Z,13.68
2023-01-19T09:19:56.568Z,12.90
2023-01-19T09:22:01.096Z,13.85
2023-01-19T09:24:03.902Z,12.73
2023-01-19T09:26:06.974Z,12.05
2023-01-19T09:28:18.066Z,12.20
2023-01-19T09:30:20.224Z,13.18
2023-01-19T09:32:28.093Z,12.52
2023-01-19T09:34:32.161Z,11.90
2023-01-19T09:36:38.312Z,12.02
2023-01-19T09:38:46.415Z,12.65
2023-01-19T09:40:59.877Z,11.65
2023-01-19T09:43:33.799Z,11.98
2023-01-19T09:46:01.808Z,11.63
2023-01-19T09:48:24.138Z,11.27
2023-01-19T09:50:38.594Z,12.55
2023-01-19T09:52:44.958Z,12.38
2023-01-19T09:55:06.690Z,13.25
2023-01-19T09:57:16.973Z,12.88
2023-01-19T09:59:30.127Z,12.40
2023-01-19T10:01:53.678Z,12.77
2023-01-19T10:04:08.889Z,13.00
2023-01-19T10:06:21.985Z,13.70
2023-01-19T10:08:38.364Z,14.27
2023-01-19T10:10:43.489Z,13.93
2023-01-19T10:13:40.913Z,13.48
2023-01-19T10:16:12.334Z,13.40
2023-01-19T10:18:51.650Z,14.88
2023-01-19T10:21:12.865Z,13.57
2023-01-19T10:23:42.261Z,13.57
2023-01-19T10:25:52.845Z,13.63
2023-01-19T10:28:09.145Z,14.40
2023-01-19T10:30:27.798Z,12.90
2023-01-19T10:32:36.735Z,13.40
2023-01-19T10:34:41.858Z,14.38
2023-01-19T10:37:05.001Z,14.35
2023-01-19T10:39:17.743Z,14.48
2023-01-19T10:41:48.417Z,14.65
2023-01-19T10:44:00.876Z,14.40
2023-01-19T10:46:22.850Z,14.30
2023-01-19T10:48:25.113Z,14.30
2023-01-19T10:50:42.691Z,15.35
2023-01-19T10:52:51.195Z,14.45
2023-01-19T10:54:56.008Z,13.73
2023-01-19T10:57:09.873Z,13.10
2023-01-19T10:59:38.673Z,13.40
2023-01-19T11:01:44.348Z,13.50
2023-01-19T11:03:47.964Z,11.52
2023-01-19T11:05:51.070Z,10.93
2023-01-19T11:07:58.541Z,11.25
2023-01-19T11:10:24.784Z,10.18
2023-01-19T11:12:27.006Z,10.43
2023-01-19T11:14:31.667Z,10.05
2023-01-19T11:16:35.657Z,9.73
2023-01-19T11:18:44.114Z,9.63
2023-01-19T11:20:58.297Z,8.90
2023-01-19T11:23:21.381Z,9.85
2023-01-19T11:25:31.192Z,9.38
2023-01-19T11:27:36.928Z,9.80
2023-01-19T11:29:41.706Z,10.00
2023-01-19T11:31:47.552Z,9.13
2023-01-19T11:34:00.064Z,10.73
2023-01-19T11:36:26.079Z,10.10
2023-01-19T11:38:45.147Z,8.63
2023-01-19T11:41:01.844Z,9.18
2023-01-19T11:43:04.216Z,8.10
2023-01-19T11:45:17.473Z,8.07
2023-01-19T11:47:23.319Z,8.57
2023-01-19T11:49:38.739Z,7.85
2023-01-19T11:51:58.856Z,7.50
2023-01-19T11:54:08.848Z,7.60
2023-01-19T11:56:13.906Z,8.20
2023-01-19T11:58:25.138Z,8.15
2023-01-19T12:00:37.063Z,9.20
2023-01-19T12:02:49.858Z,8.63
2023-01-19T12:04:58.161Z,9.43
2023-01-19T12:07:10.729Z,10.70
2023-01-19T12:09:21.323Z,11.38
2023-01-19T12:11:38.782Z,11.63
2023-01-19T12:13:44.331Z,11.80
2023-01-19T12:15:48.409Z,11.57
2023-01-19T12:17:53.751Z,10.35
2023-01-19T12:20:14.937Z,12.65
2023-01-19T12:22:20.638Z,12.30
2023-01-19T12:24:44.899Z,17.00
2023-01-19T12:27:24.287Z,14.80
2023-01-19T12:29:35.914Z,15.68
2023-01-19T12:31:43.176Z,14.73
2023-01-19T12:33:50.807Z,16.35
2023-01-19T12:36:04.076Z,14.43
2023-01-19T12:38:47.154Z,13.77
2023-01-19T12:40:49.105Z,13.65
2023-01-19T12:43:05.823Z,13.68
2023-01-19T12:45:32.046Z,12.50
2023-01-19T12:47:39.235Z,13.35
2023-01-19T12:49:51.525Z,12.30
2023-01-19T12:52:24.412Z,11.65
2023-01-19T12:54:33.253Z,11.63
2023-01-19T12:56:38.336Z,12.55
2023-01-19T12:58:47.897Z,13.90
2023-01-19T13:01:13.589Z,17.58
2023-01-19T13:03:19.852Z,17.42
2023-01-19T13:05:39.899Z,17.77
2023-01-19T13:08:04.967Z,16.25
2023-01-19T13:10:44.391Z,16.20
2023-01-19T13:13:16.844Z,15.43
2023-01-19T13:15:35.550Z,14.02
2023-01-19T13:17:50.764Z,15.63
2023-01-19T13:19:59.094Z,15.02
2023-01-19T13:22:43.876Z,16.42
2023-01-19T13:25:13.567Z,16.55
2023-01-19T13:27:15.663Z,16.73
2023-01-19T13:29:37.613Z,16.80
2023-01-19T13:33:56.115Z,18.17
2023-01-19T13:35:59.554Z,16.55
2023-01-19T13:38:11.600Z,16.92
2023-01-19T13:40:24.226Z,17.02
2023-01-19T13:42:37.480Z,19.02
2023-01-19T13:44:52.497Z,16.83
2023-01-19T13:47:03.506Z,19.45
2023-01-19T13:49:37.105Z,18.88
2023-01-19T13:51:39.320Z,18.73
2023-01-19T13:53:54.219Z,18.17
2023-01-19T13:56:08.102Z,18.63
2023-01-19T13:58:24.468Z,20.30
2023-01-19T14:00:29.848Z,19.50
2023-01-19T14:02:34.153Z,19.10
2023-01-19T14:04:37.287Z,19.90
2023-01-19T14:06:48.871Z,18.70
2023-01-19T14:09:09.026Z,19.90
2023-01-19T14:11:14.599Z,20.27
2023-01-19T14:13:25.457Z,19.90
2023-01-19T14:15:29.357Z,20.60
2023-01-19T14:17:32.721Z,20.05
2023-01-19T14:19:57.512Z,21.38
2023-01-19T14:22:02.084Z,20.02
2023-01-19T14:24:08.314Z,20.90
2023-01-19T14:26:41.914Z,19.85
2023-01-19T14:28:49.789Z,20.85
2023-01-19T14:30:58.188Z,19.90
2023-01-19T14:33:00.195Z,20.95
2023-01-19T14:35:05.158Z,21.25
2023-01-19T14:37:28.427Z,21.05
2023-01-19T14:39:36.135Z,20.63
2023-01-19T14:41:45.211Z,21.00
2023-01-19T14:43:47.426Z,20.13
2023-01-19T14:45:49.481Z,19.90
2023-01-19T14:48:02.915Z,20.90
2023-01-19T14:50:33.364Z,21.05
2023-01-19T14:52:39.947Z,20.90
2023-01-19T14:54:51.851Z,18.45
2023-01-19T14:56:54.309Z,20.02
2023-01-19T14:59:02.532Z,19.17
2023-01-19T15:01:05.032Z,18.73
2023-01-19T15:03:10.329Z,19.15
2023-01-19T15:05:14.642Z,18.67
2023-01-19T15:07:20.464Z,18.75
2023-01-19T15:09:26.917Z,18.80
2023-01-19T15:11:35.637Z,19.42
2023-01-19T15:13:39.345Z,18.38
2023-01-19T15:15:42.053Z,20.10
2023-01-19T15:17:44.593Z,20.00
2023-01-19T15:20:00.485Z,20.50
2023-01-19T15:22:02.516Z,20.33
2023-01-19T15:24:07.157Z,20.45
2023-01-19T15:26:14.066Z,20.15
2023-01-19T15:28:20.632Z,18.92
2023-01-19T15:30:33.803Z,19.73
2023-01-19T15:32:35.807Z,19.33
2023-01-19T15:34:37.745Z,19.30
2023-01-19T15:36:42.582Z,20.55
2023-01-19T15:38:46.553Z,20.95
2023-01-19T15:40:51.408Z,21.27
2023-01-19T15:42:53.762Z,21.90
2023-01-19T15:44:56.762Z,20.88
2023-01-19T15:46:59.743Z,22.95
2023-01-19T15:49:05.900Z,21.42
2023-01-19T15:51:14.119Z,22.20
2023-01-19T15:53:18.639Z,22.75
2023-01-19T15:55:21.333Z,22.98
2023-01-19T15:57:24.236Z,22.83
2023-01-19T15:59:28.201Z,21.45
2023-01-19T16:01:31.712Z,21.77
2023-01-19T16:03:52.973Z,23.58
2023-01-19T16:06:01.815Z,23.42
2023-01-19T16:08:15.752Z,23.25
2023-01-19T16:10:25.350Z,24.13
2023-01-19T16:12:29.501Z,26.25
2023-01-19T16:14:35.461Z,26.20
2023-01-19T16:16:38.913Z,25.15
2023-01-19T16:18:41.100Z,23.65
2023-01-19T16:20:44.125Z,22.85
2023-01-19T16:22:48.955Z,25.15
2023-01-19T16:24:53.300Z,24.80
2023-01-19T16:26:57.321Z,25.38
2023-01-19T16:29:01.347Z,23.33
2023-01-19T16:31:04.271Z,22.90
2023-01-19T16:33:06.491Z,24.77
2023-01-19T16:35:09.125Z,27.23
2023-01-19T16:37:14.262Z,24.70
2023-01-19T16:39:17.500Z,22.10
2023-01-19T16:41:23.204Z,22.70
2023-01-19T16:43:28.316Z,21.80
2023-01-19T16:45:33.969Z,21.80
2023-01-19T16:47:36.700Z,22.75
2023-01-19T16:49:39.032Z,22.23
2023-01-19T16:51:41.982Z,22.67
2023-01-19T16:53:44.382Z,23.77
2023-01-19T16:55:47.574Z,21.77
2023-01-19T16:57:49.827Z,24.40
2023-01-19T16:59:53.113Z,23.55
2023-01-19T17:01:55.493Z,24.48
2023-01-19T17:03:57.738Z,24.35
2023-01-19T17:06:00.067Z,24.17
2023-01-19T17:08:02.616Z,23.45
2023-01-19T17:10:05.671Z,23.40
2023-01-19T17:12:09.370Z,23.83
2023-01-19T17:14:16.962Z,22.48
2023-01-19T17:16:19.687Z,24.77
2023-01-19T17:18:22.061Z,23.05
2023-01-19T17:20:34.221Z,23.15
2023-01-19T17:22:38.251Z,22.20
2023-01-19T17:24:43.558Z,22.48
2023-01-19T17:26:49.106Z,22.70
2023-01-19T17:28:57.748Z,22.70
2023-01-19T17:31:12.100Z,22.58
2023-01-19T17:33:20.189Z,22.45
2023-01-19T17:35:22.457Z,23.50
2023-01-19T17:37:24.879Z,24.80
2023-01-19T17:39:27.011Z,25.23
2023-01-19T17:41:33.879Z,23.08
2023-01-19T17:43:38.048Z,23.15
2023-01-19T17:45:42.419Z,24.00
2023-01-19T17:47:50.019Z,23.50
2023-01-19T17:49:59.412Z,25.50
2023-01-19T17:52:01.939Z,27.80
2023-01-19T17:54:07.109Z,26.67
2023-01-19T17:56:12.825Z,25.70
2023-01-19T17:58:16.501Z,24.73
2023-01-19T18:00:19.911Z,25.55
2023-01-19T18:02:26.139Z,23.55
2023-01-19T18:04:41.272Z,23.95
2023-01-19T18:06:43.943Z,22.20
2023-01-19T18:08:49.800Z,22.52
2023-01-19T18:10:57.151Z,21.30
2023-01-19T18:12:59.765Z,21.77
2023-01-19T18:15:06.121Z,21.00
2023-01-19T18:17:08.392Z,21.63
2023-01-19T18:19:10.923Z,20.48
2023-01-19T18:21:15.467Z,20.80
2023-01-19T18:23:18.136Z,20.70
2023-01-19T18:25:20.939Z,19.77
2023-01-19T18:27:25.483Z,19.50
2023-01-19T18:29:30.266Z,19.65
2023-01-19T18:31:36.247Z,20.10
2023-01-19T18:33:40.795Z,20.23
2023-01-19T18:35:52.264Z,21.17
2023-01-19T18:37:57.835Z,20.90
2023-01-19T18:40:05.295Z,20.10
2023-01-19T18:42:09.242Z,19.85
2023-01-19T18:44:13.721Z,20.75
2023-01-19T18:46:16.907Z,21.10
2023-01-19T18:48:19.720Z,20.30
2023-01-19T18:50:23.667Z,21.17
2023-01-19T18:52:26.766Z,19.48
2023-01-19T18:54:46.977Z,20.50
2023-01-19T18:56:53.496Z,20.23
2023-01-19T18:58:56.492Z,18.77
2023-01-19T19:01:01.162Z,18.73
2023-01-19T19:03:09.020Z,20.05
2023-01-19T19:05:17.960Z,20.65
2023-01-19T19:07:20.447Z,18.95
2023-01-19T19:09:24.472Z,19.17
2023-01-19T19:11:27.989Z,20.05
2023-01-19T19:13:31.007Z,19.60
2023-01-19T19:15:37.002Z,19.30
2023-01-19T19:17:41.659Z,18.63
2023-01-19T19:19:49.606Z,19.10
2023-01-19T19:21:54.406Z,18.80
2023-01-19T19:23:58.959Z,18.23
2023-01-19T19:26:10.409Z,17.95
2023-01-19T19:28:15.960Z,18.77
2023-01-19T19:30:24.816Z,18.27
2023-01-19T19:32:27.653Z,17.45
2023-01-19T19:34:30.498Z,18.10
2023-01-19T19:36:33.809Z,18.67
2023-01-19T19:38:40.747Z,18.30
2023-01-19T19:40:44.879Z,18.48
2023-01-19T19:42:47.402Z,18.67
2023-01-19T19:44:54.345Z,16.90
2023-01-19T19:47:05.942Z,18.90
2023-01-19T19:51:18.997Z,19.30
2023-01-19T19:53:24.118Z,17.77
2023-01-19T19:55:27.401Z,19.58
2023-01-19T19:57:31.584Z,17.00
2023-01-19T19:59:33.970Z,17.65
2023-01-19T20:01:36.979Z,17.42
2023-01-19T20:03:41.519Z,19.33
2023-01-19T20:05:46.199Z,18.00
2023-01-19T20:07:50.091Z,18.23
2023-01-19T20:09:54.559Z,17.90
2023-01-19T20:11:57.558Z,19.48
2023-01-19T20:14:00.672Z,18.10
2023-01-19T20:16:13.360Z,18.42
2023-01-19T20:18:16.459Z,19.15
2023-01-19T20:20:30.580Z,19.23
2023-01-19T20:22:34.041Z,19.17
2023-01-19T20:24:40.077Z,19.02
2023-01-19T20:26:51.432Z,19.55
2023-01-19T20:28:56.089Z,18.80
2023-01-19T20:31:10.297Z,19.13
2023-01-19T20:33:13.570Z,19.65
2023-01-19T20:35:17.104Z,20.00
2023-01-19T20:37:20.243Z,20.33
2023-01-19T20:39:25.893Z,20.15
2023-01-19T20:41:29.755Z,19.90
2023-01-19T20:43:37.161Z,20.30
2023-01-19T20:45:40.025Z,20.80
2023-01-19T20:47:42.786Z,21.08
2023-01-19T20:49:45.618Z,20.75
2023-01-19T20:51:48.981Z,21.23
2023-01-19T20:53:52.048Z,21.85
2023-01-19T20:55:55.435Z,21.50
2023-01-19T20:57:58.160Z,21.23
2023-01-19T21:00:01.574Z,22.05
2023-01-19T21:02:06.797Z,22.63
2023-01-19T21:04:10.333Z,22.25
2023-01-19T21:06:13.936Z,21.25
2023-01-19T21:08:16.922Z,21.17
2023-01-19T21:10:19.393Z,21.92
2023-01-19T21:12:23.155Z,23.42
2023-01-19T21:14:26.607Z,23.33
2023-01-19T21:16:30.879Z,23.15
2023-01-19T21:18:33.660Z,24.25
2023-01-19T21:20:37.945Z,24.38
2023-01-19T21:22:40.363Z,24.20
2023-01-19T21:24:44.536Z,24.23
2023-01-19T21:26:46.760Z,26.38
2023-01-19T21:28:50.917Z,25.45
2023-01-19T21:31:18.722Z,25.40
2023-01-19T21:33:24.216Z,27.25
2023-01-19T21:35:26.282Z,26.67
2023-01-19T21:37:30.861Z,28.00
2023-01-19T21:39:33.852Z,27.17
2023-01-19T21:41:40.141Z,27.55
2023-01-19T21:43:43.844Z,26.45
2023-01-19T21:45:47.305Z,27.48
2023-01-19T21:47:50.399Z,27.35
2023-01-19T21:49:53.353Z,27.60
2023-01-19T21:51:55.538Z,27.50
2023-01-19T21:53:59.836Z,27.45
2023-01-19T21:56:16.119Z,26.58
2023-01-19T21:58:18.472Z,26.05
2023-01-19T22:00:22.947Z,26.55
2023-01-19T22:02:38.249Z,26.15
2023-01-19T22:04:41.092Z,25.83
2023-01-19T22:06:43.266Z,26.20
2023-01-19T22:08:47.320Z,26.10
2023-01-19T22:10:49.341Z,26.17
2023-01-19T22:12:51.287Z,25.95
2023-01-19T22:14:54.378Z,25.27
2023-01-19T22:16:57.559Z,27.77
2023-01-19T22:19:02.532Z,26.25
2023-01-19T22:21:13.390Z,25.20
2023-01-19T22:23:15.954Z,27.70
2023-01-19T22:25:18.199Z,28.10
2023-01-19T22:27:20.303Z,26.27
2023-01-19T22:29:23.176Z,28.25
2023-01-19T22:31:29.460Z,26.17
2023-01-19T22:33:32.893Z,27.27
2023-01-19T22:35:39.748Z,26.02
2023-01-19T22:37:41.778Z,27.05
2023-01-19T22:39:44.819Z,26.60
2023-01-19T22:41:52.958Z,27.15
2023-01-19T22:43:57.205Z,27.15
2023-01-19T22:45:59.303Z,25.70
2023-01-19T22:48:01.385Z,27.38
2023-01-19T22:50:03.578Z,28.65
2023-01-19T22:52:05.696Z,28.40
2023-01-19T22:54:08.711Z,31.20
2023-01-19T22:56:17.133Z,29.98
2023-01-19T22:58:20.315Z,29.50
2023-01-19T23:00:22.553Z,29.50
2023-01-19T23:02:24.992Z,28.63
2023-01-19T23:04:30.021Z,27.20
2023-01-19T23:06:35.020Z,27.70
2023-01-19T23:08:38.762Z,27.58
2023-01-19T23:10:40.868Z,27.77
2023-01-19T23:12:49.007Z,27.02
2023-01-19T23:14:51.055Z,28.73
2023-01-19T23:16:54.024Z,27.75
2023-01-19T23:19:00.303Z,28.20
2023-01-19T23:21:14.640Z,27.70
2023-01-19T23:23:18.245Z,27.27
2023-01-19T23:25:24.611Z,28.80
2023-01-19T23:27:45.130Z,26.38
2023-01-19T23:29:48.991Z,27.25
2023-01-19T23:31:54.526Z,26.63
2023-01-19T23:34:02.355Z,27.25
2023-01-19T23:36:04.474Z,27.83
2023-01-19T23:38:06.560Z,28.85
2023-01-19T23:40:12.618Z,26.55
2023-01-19T23:42:14.630Z,27.35
2023-01-19T23:44:17.462Z,27.13
2023-01-19T23:46:20.466Z,28.15
2023-01-19T23:48:23.506Z,28.45
2023-01-19T23:50:25.436Z,28.50
2023-01-19T23:52:27.436Z,27.83
2023-01-19T23:54:29.333Z,27.83
2023-01-19T23:56:34.304Z,29.40
2023-01-19T23:58:36.651Z,28.67
